Time;durP1;ratioP1;P1;durP2;ratioP2;P2;SDS_P1;SDS_P2;PMS_P1;PMS_P2;Temp;Humidity;BMP_temperature;BMP_pressure;BME280_temperature;BME280_humidity;BME280_pressure;Samples;Min_cycle;Max_cycle;Signal;HPM_P1;HPM_P2
2022/03/31 00:00:07;;;;;;;3.03;2.05;;;2.50;99.90;;;;;;4972085;28;20118;-51
2022/03/31 00:02:33;;;;;;;3.20;2.20;;;2.40;99.90;;;;;;4972245;28;20037;-49
2022/03/31 00:04:59;;;;;;;3.47;2.05;;;2.40;99.90;;;;;;4972217;28;20114;-52
2022/03/31 00:07:24;;;;;;;3.13;1.98;;;2.40;99.90;;;;;;4972325;28;20053;-50
2022/03/31 00:09:50;;;;;;;3.72;2.20;;;2.40;99.90;;;;;;4972314;28;20031;-52
2022/03/31 00:12:15;;;;;;;4.38;2.45;;;2.40;99.90;;;;;;4972299;28;20031;-52
2022/03/31 00:14:41;;;;;;;3.30;2.17;;;2.40;99.90;;;;;;4972485;28;20035;-52
2022/03/31 00:17:07;;;;;;;4.15;2.20;;;2.40;99.90;;;;;;4972109;28;20029;-50
2022/03/31 00:19:32;;;;;;;2.88;2.60;;;2.40;99.90;;;;;;4972514;28;20106;-50
2022/03/31 00:21:58;;;;;;;3.20;2.40;;;2.40;99.90;;;;;;4971880;28;20031;-51
2022/03/31 00:24:23;;;;;;;4.30;2.55;;;2.30;99.90;;;;;;4971879;28;20554;-49
2022/03/31 00:26:49;;;;;;;5.00;2.92;;;2.30;99.90;;;;;;4971878;28;20027;-50
2022/03/31 00:29:14;;;;;;;3.00;2.72;;;2.30;99.90;;;;;;4972310;28;20065;-52
2022/03/31 00:31:41;;;;;;;3.78;2.50;;;2.30;99.90;;;;;;4970685;28;20029;-49
2022/03/31 00:34:07;;;;;;;4.20;2.90;;;2.20;99.90;;;;;;4971800;28;20026;-51
2022/03/31 00:36:32;;;;;;;2.72;2.47;;;2.20;99.90;;;;;;4969627;28;20023;-52
2022/03/31 00:41:42;;;;;;;3.40;2.55;;;2.10;99.90;;;;;;4969100;28;20409;-52
2022/03/31 00:44:08;;;;;;;3.78;3.22;;;2.10;99.90;;;;;;4971678;28;20034;-49
2022/03/31 00:46:34;;;;;;;3.95;3.10;;;2.10;99.90;;;;;;4971851;28;20492;-49
2022/03/31 00:49:01;;;;;;;3.28;2.97;;;2.10;99.90;;;;;;4971716;28;20121;-51
2022/03/31 00:51:31;;;;;;;3.47;3.17;;;2.00;99.90;;;;;;4972056;28;20026;-49
2022/03/31 00:53:57;;;;;;;9.13;3.20;;;2.00;99.90;;;;;;4971496;28;20486;-49
2022/03/31 00:56:24;;;;;;;4.28;2.83;;;2.00;99.90;;;;;;4971030;28;20033;-49
2022/03/31 00:58:51;;;;;;;2.95;2.55;;;2.00;99.90;;;;;;4969359;28;20049;-53
2022/03/31 01:01:18;;;;;;;4.85;3.67;;;1.90;99.90;;;;;;4969260;28;20624;-51
2022/03/31 01:03:43;;;;;;;5.03;3.33;;;1.90;99.90;;;;;;4968897;28;20034;-50
2022/03/31 01:06:09;;;;;;;4.43;3.75;;;1.80;99.90;;;;;;4971448;28;20061;-50
2022/03/31 01:08:35;;;;;;;3.50;3.17;;;1.80;99.90;;;;;;4971664;28;20027;-49
2022/03/31 01:11:00;;;;;;;7.05;3.30;;;1.70;99.90;;;;;;4971383;28;20478;-50
2022/03/31 01:13:26;;;;;;;5.65;3.60;;;1.70;99.90;;;;;;4970954;28;20104;-50
2022/03/31 01:15:52;;;;;;;3.67;3.38;;;1.70;99.90;;;;;;4970347;28;20742;-51
2022/03/31 01:18:18;;;;;;;4.07;3.50;;;1.60;99.90;;;;;;4970640;28;20030;-51
2022/03/31 01:20:44;;;;;;;4.13;3.50;;;1.60;99.90;;;;;;4969982;28;20117;-52
2022/03/31 01:23:16;;;;;;;4.57;3.20;;;1.60;99.90;;;;;;4970661;28;20581;-50
2022/03/31 01:25:42;;;;;;;5.72;4.05;;;1.50;99.90;;;;;;4971186;28;20070;-48
2022/03/31 01:28:08;;;;;;;5.28;3.42;;;1.50;99.90;;;;;;4970986;28;20034;-52
2022/03/31 01:30:34;;;;;;;6.95;4.38;;;1.40;99.90;;;;;;4971057;28;20023;-52
2022/03/31 01:32:59;;;;;;;4.63;3.38;;;1.40;99.90;;;;;;4970548;28;20035;-51
2022/03/31 01:35:25;;;;;;;4.55;3.55;;;1.40;99.90;;;;;;4971335;28;20023;-51
2022/03/31 01:37:51;;;;;;;4.40;3.38;;;1.40;99.90;;;;;;4970710;28;20101;-53
2022/03/31 01:40:17;;;;;;;4.88;3.40;;;1.40;99.90;;;;;;4970782;28;20030;-52
2022/03/31 01:42:44;;;;;;;5.38;4.32;;;1.40;99.90;;;;;;4970784;28;20551;-53
2022/03/31 01:45:12;;;;;;;5.57;4.03;;;1.40;99.90;;;;;;4970463;28;20030;-48
2022/03/31 01:47:37;;;;;;;5.03;3.67;;;1.30;99.90;;;;;;4970315;28;20026;-48
2022/03/31 01:50:04;;;;;;;4.45;4.05;;;1.30;99.90;;;;;;4970656;28;20026;-52
2022/03/31 01:52:31;;;;;;;6.10;4.35;;;1.30;99.90;;;;;;4968948;28;20076;-51
2022/03/31 01:54:57;;;;;;;4.35;3.78;;;1.30;99.90;;;;;;4970478;28;20030;-51
2022/03/31 01:57:22;;;;;;;5.88;4.20;;;1.30;99.90;;;;;;4979863;28;20038;-52
2022/03/31 01:59:48;;;;;;;5.07;3.75;;;1.20;99.90;;;;;;4990302;28;20555;-49
2022/03/31 02:02:14;;;;;;;5.25;4.13;;;1.20;99.90;;;;;;4970875;28;20409;-54
2022/03/31 02:04:41;;;;;;;6.20;4.85;;;1.20;99.90;;;;;;4970117;28;20125;-53
2022/03/31 02:07:07;;;;;;;5.00;4.30;;;1.20;99.90;;;;;;4970893;28;20031;-52
2022/03/31 02:09:33;;;;;;;4.45;3.80;;;1.20;99.90;;;;;;4971327;28;20121;-53
2022/03/31 02:11:59;;;;;;;5.32;4.28;;;1.20;99.90;;;;;;4970659;28;20097;-51
2022/03/31 02:14:25;;;;;;;5.82;4.07;;;1.20;99.90;;;;;;4970264;28;20069;-50
2022/03/31 02:16:51;;;;;;;7.75;5.18;;;1.20;99.90;;;;;;4970402;28;20038;-54
2022/03/31 02:19:17;;;;;;;5.35;4.00;;;1.20;99.90;;;;;;4970176;28;20121;-49
2022/03/31 02:21:44;;;;;;;5.18;4.40;;;1.10;99.90;;;;;;4970608;28;20084;-50
2022/03/31 02:24:09;;;;;;;4.93;4.07;;;1.10;99.90;;;;;;4970547;28;20027;-49
2022/03/31 02:26:36;;;;;;;7.78;4.93;;;1.10;99.90;;;;;;4970350;28;20031;-51
2022/03/31 02:29:03;;;;;;;5.40;4.45;;;1.10;99.90;;;;;;4970195;28;20046;-51
2022/03/31 02:31:29;;;;;;;5.85;4.88;;;1.00;99.90;;;;;;4964740;28;20355;-49
2022/03/31 02:33:55;;;;;;;5.78;4.50;;;1.00;99.90;;;;;;4970148;28;20038;-51
2022/03/31 02:36:21;;;;;;;6.40;4.53;;;0.90;99.90;;;;;;4970224;28;20019;-50
2022/03/31 02:38:47;;;;;;;7.22;4.80;;;0.90;99.90;;;;;;4967266;28;20027;-53
2022/03/31 02:41:12;;;;;;;6.93;5.45;;;0.90;99.90;;;;;;4958138;28;20046;-52
2022/03/31 02:43:38;;;;;;;6.13;5.28;;;0.90;99.90;;;;;;4967585;28;20027;-51
2022/03/31 02:46:03;;;;;;;7.40;5.47;;;0.80;99.90;;;;;;4972543;28;20397;-52
2022/03/31 02:48:29;;;;;;;10.30;5.45;;;0.80;99.90;;;;;;4974248;28;20030;-50
2022/03/31 02:50:54;;;;;;;7.38;5.03;;;0.80;99.90;;;;;;4973963;28;20033;-52
2022/03/31 02:56:04;;;;;;;7.20;5.45;;;0.80;99.90;;;;;;4973291;28;20030;-52
2022/03/31 02:58:30;;;;;;;5.40;4.90;;;0.80;99.90;;;;;;4986357;28;20034;-54
2022/03/31 03:00:56;;;;;;;7.20;5.80;;;0.80;99.90;;;;;;4992011;28;20105;-50
2022/03/31 03:03:22;;;;;;;6.38;5.75;;;0.80;99.90;;;;;;4973762;28;20033;-51
2022/03/31 03:05:48;;;;;;;5.90;5.18;;;0.70;99.90;;;;;;4973518;28;20026;-54
2022/03/31 03:08:16;;;;;;;6.57;5.63;;;0.70;99.90;;;;;;4973250;28;20520;-51
2022/03/31 03:10:42;;;;;;;7.32;5.22;;;0.70;99.90;;;;;;4973720;28;20089;-52
2022/03/31 03:13:09;;;;;;;8.88;6.03;;;0.70;99.90;;;;;;4972175;28;20429;-53
2022/03/31 03:15:36;;;;;;;7.07;5.97;;;0.80;99.90;;;;;;4972514;28;20026;-51
2022/03/31 03:18:02;;;;;;;9.23;6.80;;;0.70;99.90;;;;;;4973418;28;20046;-50
2022/03/31 03:20:28;;;;;;;8.40;6.25;;;0.70;99.90;;;;;;4973562;28;20387;-50
2022/03/31 03:22:54;;;;;;;7.70;5.90;;;0.70;99.90;;;;;;4973171;28;20452;-52
2022/03/31 03:25:22;;;;;;;7.40;5.80;;;0.70;99.90;;;;;;4973582;28;20442;-50
2022/03/31 03:27:49;;;;;;;8.43;6.30;;;0.70;99.90;;;;;;4973044;28;20035;-49
2022/03/31 03:30:18;;;;;;;9.27;6.65;;;0.60;99.90;;;;;;4973283;28;20038;-49
2022/03/31 03:32:45;;;;;;;8.82;5.97;;;0.60;99.90;;;;;;4972753;28;20042;-50
2022/03/31 03:35:12;;;;;;;7.50;5.95;;;0.60;99.90;;;;;;4972258;28;20027;-52
2022/03/31 03:37:38;;;;;;;9.60;6.38;;;0.60;99.90;;;;;;4971640;28;20037;-50
2022/03/31 03:40:06;;;;;;;8.05;6.47;;;0.60;99.90;;;;;;4972870;28;20041;-53
2022/03/31 03:42:32;;;;;;;8.52;6.25;;;0.60;99.90;;;;;;4972430;28;20097;-53
2022/03/31 03:44:58;;;;;;;8.52;6.47;;;0.50;99.90;;;;;;4973152;28;20038;-54
2022/03/31 03:47:24;;;;;;;7.60;5.95;;;0.50;99.90;;;;;;4972503;28;20027;-52
2022/03/31 03:49:50;;;;;;;8.05;5.75;;;0.50;99.90;;;;;;4972856;28;20027;-53
2022/03/31 03:52:16;;;;;;;7.05;5.75;;;0.50;99.90;;;;;;4971316;28;20026;-56
2022/03/31 03:54:42;;;;;;;6.60;5.90;;;0.40;99.90;;;;;;4970776;28;20394;-54
2022/03/31 03:57:08;;;;;;;6.25;5.47;;;0.50;99.90;;;;;;4972316;28;20038;-53
2022/03/31 03:59:34;;;;;;;6.10;5.50;;;0.50;99.90;;;;;;4972666;28;20077;-52
2022/03/31 04:01:59;;;;;;;5.97;5.13;;;0.40;99.90;;;;;;4971402;28;20034;-53
2022/03/31 04:04:29;;;;;;;6.15;5.55;;;0.40;99.90;;;;;;4986086;28;20061;-52
2022/03/31 04:06:56;;;;;;;9.75;6.40;;;0.40;99.90;;;;;;4976847;28;20477;-53
2022/03/31 04:09:23;;;;;;;6.07;5.07;;;0.30;99.90;;;;;;4972200;28;20031;-51
2022/03/31 04:11:48;;;;;;;9.05;6.00;;;0.30;99.90;;;;;;4972165;28;20051;-51
2022/03/31 04:14:14;;;;;;;5.75;5.15;;;0.30;99.90;;;;;;4972261;28;20424;-51
2022/03/31 04:16:40;;;;;;;6.15;5.53;;;0.30;99.90;;;;;;4971738;28;20405;-51
2022/03/31 04:19:08;;;;;;;8.27;5.80;;;0.30;99.90;;;;;;4972133;28;20034;-53
2022/03/31 04:21:35;;;;;;;7.13;4.95;;;0.30;99.90;;;;;;4971788;28;20027;-52
2022/03/31 04:24:01;;;;;;;8.32;5.78;;;0.30;99.90;;;;;;4971487;28;20026;-53
2022/03/31 04:26:27;;;;;;;7.60;5.95;;;0.30;99.90;;;;;;4972333;28;20502;-51
2022/03/31 04:28:52;;;;;;;7.55;5.22;;;0.20;99.90;;;;;;4971960;28;20035;-52
2022/03/31 04:31:18;;;;;;;6.00;5.40;;;0.20;99.90;;;;;;4971949;28;20457;-50
2022/03/31 04:33:43;;;;;;;6.68;5.18;;;0.20;99.90;;;;;;4971714;28;20078;-53
2022/03/31 04:36:09;;;;;;;5.68;4.95;;;0.20;99.90;;;;;;4971292;28;20034;-55
2022/03/31 04:38:35;;;;;;;6.28;4.93;;;0.20;99.90;;;;;;4971824;28;20054;-53
2022/03/31 04:41:00;;;;;;;6.13;4.78;;;0.10;99.90;;;;;;4972076;28;20536;-52
2022/03/31 04:43:26;;;;;;;6.93;4.97;;;0.10;99.90;;;;;;4970316;28;20397;-51
2022/03/31 04:45:51;;;;;;;5.45;4.72;;;0.10;99.90;;;;;;4972013;28;20019;-51
2022/03/31 04:48:17;;;;;;;6.07;5.03;;;0.10;99.90;;;;;;4971375;28;20026;-51
2022/03/31 04:50:43;;;;;;;5.68;4.53;;;0.10;99.90;;;;;;4971551;28;20026;-52
2022/03/31 04:53:09;;;;;;;7.10;4.60;;;0.10;99.90;;;;;;4971123;28;20070;-51
2022/03/31 04:55:35;;;;;;;4.78;4.30;;;0.00;99.90;;;;;;4971576;28;20097;-53
2022/03/31 04:58:01;;;;;;;5.00;4.50;;;0.00;99.90;;;;;;4971198;28;20108;-55
2022/03/31 05:00:26;;;;;;;5.05;4.45;;;0.00;99.90;;;;;;4971894;28;20430;-49
2022/03/31 05:02:52;;;;;;;5.38;4.53;;;0.00;99.90;;;;;;4970939;28;20526;-54
2022/03/31 05:05:17;;;;;;;6.22;4.93;;;0.00;99.90;;;;;;4969399;28;20489;-54
2022/03/31 05:07:43;;;;;;;6.93;4.97;;;-0.10;99.90;;;;;;4971174;28;20505;-51
2022/03/31 05:10:09;;;;;;;5.75;4.22;;;-0.10;99.90;;;;;;4971460;28;20417;-52
2022/03/31 05:12:34;;;;;;;4.68;3.92;;;-0.20;99.90;;;;;;4970796;28;20054;-51
2022/03/31 05:15:00;;;;;;;5.43;4.93;;;-0.20;99.90;;;;;;4971395;28;20520;-52
2022/03/31 05:17:31;;;;;;;6.68;5.65;;;-0.20;99.90;;;;;;4971216;28;20556;-54
2022/03/31 05:19:57;;;;;;;6.07;5.28;;;-0.20;99.90;;;;;;4971077;28;20405;-55
2022/03/31 05:22:22;;;;;;;5.28;4.78;;;-0.20;99.90;;;;;;4971537;28;20031;-53
2022/03/31 05:24:48;;;;;;;6.15;4.85;;;-0.20;99.90;;;;;;4970937;28;20041;-56
2022/03/31 05:27:14;;;;;;;7.10;5.10;;;-0.20;99.90;;;;;;4971100;28;20041;-54
2022/03/31 05:29:40;;;;;;;7.30;5.28;;;-0.20;99.90;;;;;;4970867;28;20434;-54
2022/03/31 05:32:06;;;;;;;6.35;4.72;;;-0.30;99.90;;;;;;4970800;28;20033;-53
2022/03/31 05:34:34;;;;;;;5.55;5.00;;;-0.30;99.90;;;;;;4969245;28;20034;-51
2022/03/31 05:36:59;;;;;;;5.13;4.18;;;-0.30;99.90;;;;;;4970833;28;20444;-51
2022/03/31 05:39:25;;;;;;;6.57;5.07;;;-0.30;99.90;;;;;;4971063;28;20037;-51
2022/03/31 05:41:50;;;;;;;7.32;4.20;;;-0.30;99.90;;;;;;4970576;28;20109;-53
2022/03/31 05:44:16;;;;;;;5.40;4.57;;;-0.30;99.90;;;;;;4970842;28;20042;-52
2022/03/31 05:46:44;;;;;;;6.55;4.80;;;-0.20;99.90;;;;;;4970736;28;20041;-50
2022/03/31 05:49:10;;;;;;;6.40;4.70;;;-0.20;99.90;;;;;;4970780;28;20018;-52
2022/03/31 05:51:36;;;;;;;6.10;4.38;;;-0.30;99.90;;;;;;4970751;28;20030;-54
2022/03/31 05:54:03;;;;;;;4.97;4.28;;;-0.30;99.90;;;;;;4970570;28;20026;-52
2022/03/31 05:56:29;;;;;;;5.18;4.53;;;-0.30;99.90;;;;;;4970030;28;20481;-53
2022/03/31 05:58:55;;;;;;;6.38;4.80;;;-0.30;99.90;;;;;;4982399;28;20026;-53
2022/03/31 06:01:20;;;;;;;4.90;4.20;;;-0.30;99.90;;;;;;4990542;28;20049;-52
2022/03/31 06:03:46;;;;;;;7.45;4.45;;;-0.30;99.90;;;;;;4989925;28;20036;-55
2022/03/31 06:06:11;;;;;;;6.05;4.22;;;-0.30;99.90;;;;;;4969957;28;20050;-53
2022/03/31 06:08:37;;;;;;;6.47;4.63;;;-0.30;99.90;;;;;;4970419;28;20035;-54
2022/03/31 06:11:03;;;;;;;4.00;3.58;;;-0.40;99.90;;;;;;4977088;28;20093;-53
2022/03/31 06:13:28;;;;;;;5.07;3.95;;;-0.40;99.90;;;;;;4982692;28;20505;-52
2022/03/31 06:15:54;;;;;;;5.63;4.07;;;-0.40;99.90;;;;;;4970761;28;20023;-53
2022/03/31 06:18:23;;;;;;;5.28;4.43;;;-0.40;99.90;;;;;;4974619;28;20473;-53
2022/03/31 06:20:48;;;;;;;5.18;4.30;;;-0.40;99.90;;;;;;4974560;28;20434;-54
2022/03/31 06:23:14;;;;;;;6.00;4.28;;;-0.40;99.90;;;;;;4974125;28;20098;-53
2022/03/31 06:25:42;;;;;;;4.85;3.92;;;-0.40;99.90;;;;;;4974109;28;20027;-53
2022/03/31 06:28:09;;;;;;;4.70;3.92;;;-0.30;99.90;;;;;;4973998;28;20041;-52
2022/03/31 06:30:34;;;;;;;5.55;3.70;;;-0.40;99.90;;;;;;4974138;28;20038;-52
2022/03/31 06:33:01;;;;;;;6.88;4.63;;;-0.30;99.90;;;;;;4974141;28;20050;-50
2022/03/31 06:35:27;;;;;;;7.57;4.63;;;-0.30;99.90;;;;;;4974360;28;20041;-50
2022/03/31 06:37:53;;;;;;;7.78;4.30;;;-0.30;99.90;;;;;;4973916;28;20489;-50
2022/03/31 06:40:19;;;;;;;5.47;4.28;;;-0.30;99.90;;;;;;4974056;28;20042;-52
2022/03/31 06:42:45;;;;;;;6.55;4.47;;;-0.30;99.90;;;;;;4973899;28;20031;-52
2022/03/31 06:45:14;;;;;;;6.05;4.38;;;-0.30;99.90;;;;;;4974209;28;20118;-52
2022/03/31 06:47:40;;;;;;;5.82;4.13;;;-0.40;99.90;;;;;;4973736;28;20073;-55
2022/03/31 06:50:07;;;;;;;5.45;4.15;;;-0.30;99.90;;;;;;4974271;28;20378;-52
2022/03/31 06:52:33;;;;;;;5.82;4.13;;;-0.30;99.90;;;;;;4973481;28;20169;-51
2022/03/31 06:54:58;;;;;;;9.07;4.63;;;-0.30;99.90;;;;;;4973727;28;20545;-49
2022/03/31 06:57:24;;;;;;;4.35;3.70;;;-0.30;99.90;;;;;;4972550;28;20069;-51
2022/03/31 06:59:50;;;;;;;7.03;4.38;;;-0.30;99.90;;;;;;4973472;28;20043;-50
2022/03/31 07:02:16;;;;;;;4.65;3.75;;;-0.30;99.90;;;;;;4973107;28;20018;-52
2022/03/31 07:04:41;;;;;;;5.53;4.20;;;-0.30;99.90;;;;;;4973073;28;20489;-53
2022/03/31 07:07:08;;;;;;;6.13;4.15;;;-0.30;99.90;;;;;;4971838;28;20533;-53
2022/03/31 07:09:33;;;;;;;8.07;4.50;;;-0.30;99.90;;;;;;4973488;28;20114;-50
2022/03/31 07:11:59;;;;;;;4.30;3.75;;;-0.30;99.90;;;;;;4972685;28;20105;-51
2022/03/31 07:14:25;;;;;;;6.13;4.03;;;-0.30;99.90;;;;;;4978984;28;20382;-52
2022/03/31 07:16:50;;;;;;;6.38;4.30;;;-0.40;99.90;;;;;;4980356;28;20478;-52
2022/03/31 07:19:16;;;;;;;4.97;3.75;;;-0.40;99.90;;;;;;4973737;28;20046;-56
2022/03/31 07:21:42;;;;;;;6.78;3.47;;;-0.40;99.90;;;;;;4973022;28;20049;-53
2022/03/31 07:24:07;;;;;;;6.05;3.90;;;-0.40;99.90;;;;;;4972549;28;20038;-51
2022/03/31 07:26:33;;;;;;;4.20;3.80;;;-0.40;99.90;;;;;;4972942;28;20033;-49
2022/03/31 07:28:58;;;;;;;5.72;3.58;;;-0.40;99.90;;;;;;4971474;28;20034;-54
2022/03/31 07:31:26;;;;;;;4.70;3.83;;;-0.30;99.90;;;;;;4972771;28;20039;-53
2022/03/31 07:33:52;;;;;;;4.40;3.83;;;-0.20;99.90;;;;;;4972902;28;20062;-54
2022/03/31 07:36:18;;;;;;;4.70;3.65;;;-0.30;99.90;;;;;;4972839;28;20038;-51
2022/03/31 07:38:45;;;;;;;4.97;4.15;;;-0.20;99.90;;;;;;4988060;28;20030;-51
2022/03/31 07:41:12;;;;;;;5.68;3.75;;;-0.20;99.90;;;;;;4972929;28;20266;-53
2022/03/31 07:43:38;;;;;;;4.90;4.13;;;-0.20;99.90;;;;;;4972361;28;20062;-50
2022/03/31 07:46:04;;;;;;;6.13;3.90;;;-0.10;99.90;;;;;;4972536;28;20085;-49
2022/03/31 07:48:29;;;;;;;4.55;3.28;;;-0.10;99.90;;;;;;4973055;28;20074;-49
2022/03/31 07:50:58;;;;;;;6.38;4.18;;;0.00;99.90;;;;;;4972875;28;20437;-51
2022/03/31 07:53:25;;;;;;;6.75;3.95;;;0.10;99.90;;;;;;4972809;28;20062;-51
2022/03/31 07:55:51;;;;;;;5.28;4.03;;;0.10;99.90;;;;;;4973737;28;20106;-52
2022/03/31 07:58:16;;;;;;;7.20;4.13;;;0.00;99.90;;;;;;4972655;28;20609;-53
2022/03/31 08:00:42;;;;;;;4.57;3.72;;;0.10;99.90;;;;;;4972674;28;20393;-56
2022/03/31 08:03:08;;;;;;;6.57;3.90;;;0.20;99.90;;;;;;4972545;28;20548;-54
2022/03/31 08:05:37;;;;;;;4.13;3.72;;;0.30;99.90;;;;;;4972735;28;20030;-52
2022/03/31 08:08:03;;;;;;;3.92;3.45;;;0.40;99.90;;;;;;4972615;28;20015;-53
2022/03/31 08:10:28;;;;;;;5.65;3.97;;;0.40;99.90;;;;;;4972666;28;20054;-55
2022/03/31 08:12:55;;;;;;;7.15;3.60;;;0.50;99.90;;;;;;4971664;28;20027;-55
2022/03/31 08:15:23;;;;;;;4.72;3.53;;;0.50;99.90;;;;;;4972290;28;20030;-53
2022/03/31 08:17:49;;;;;;;4.32;3.78;;;0.60;99.90;;;;;;4972296;28;20030;-55
2022/03/31 08:20:15;;;;;;;3.80;3.10;;;0.60;99.90;;;;;;4972185;28;20069;-54
2022/03/31 08:22:41;;;;;;;6.25;3.65;;;0.60;99.90;;;;;;4972135;28;20116;-55
2022/03/31 08:25:08;;;;;;;4.63;3.38;;;0.70;99.90;;;;;;4972092;28;20600;-54
2022/03/31 08:27:35;;;;;;;6.25;3.65;;;0.80;99.90;;;;;;4970346;28;20031;-55
2022/03/31 08:30:02;;;;;;;5.55;3.25;;;0.70;99.90;;;;;;4970762;28;20026;-54
2022/03/31 08:32:28;;;;;;;3.40;2.88;;;0.80;99.90;;;;;;4973789;28;20113;-51
2022/03/31 08:34:53;;;;;;;6.72;3.65;;;0.90;99.90;;;;;;4990211;28;20102;-50
2022/03/31 08:37:19;;;;;;;5.38;3.47;;;1.00;99.90;;;;;;4971659;28;20080;-51
2022/03/31 08:39:44;;;;;;;5.88;3.63;;;1.10;99.90;;;;;;4971004;28;20555;-53
2022/03/31 08:42:11;;;;;;;5.95;3.40;;;1.10;99.90;;;;;;4971328;28;20109;-54
2022/03/31 08:44:39;;;;;;;4.22;3.28;;;1.00;99.90;;;;;;4971557;28;20109;-54
2022/03/31 08:47:06;;;;;;;4.18;2.92;;;1.10;99.90;;;;;;4971091;28;20037;-51
2022/03/31 08:49:34;;;;;;;5.22;2.80;;;1.20;99.90;;;;;;4971552;28;20038;-54
2022/03/31 08:51:59;;;;;;;5.13;3.00;;;1.40;99.90;;;;;;4971245;28;20402;-53
2022/03/31 08:54:25;;;;;;;4.65;2.78;;;1.40;99.90;;;;;;4971403;28;20019;-51
2022/03/31 08:56:53;;;;;;;4.30;2.95;;;1.40;99.90;;;;;;4971529;28;20710;-53
2022/03/31 08:59:19;;;;;;;6.43;3.03;;;1.40;99.90;;;;;;4971458;28;20106;-55
2022/03/31 09:01:45;;;;;;;5.38;3.55;;;1.50;99.90;;;;;;4971606;28;20105;-54
2022/03/31 09:04:21;;;;;;;4.03;2.72;;;1.60;99.90;;;;;;4970865;28;20043;-54
2022/03/31 09:07:00;;;;;;;7.72;2.78;;;1.70;99.90;;;;;;4971414;28;20027;-53
2022/03/31 09:09:25;;;;;;;5.45;3.08;;;1.70;99.90;;;;;;4971592;28;20085;-53
2022/03/31 09:11:51;;;;;;;4.88;2.58;;;1.70;99.90;;;;;;4971162;28;20434;-52
2022/03/31 09:14:28;;;;;;;5.00;2.92;;;1.80;99.90;;;;;;4969446;28;20061;-53
2022/03/31 09:16:53;;;;;;;3.85;2.80;;;1.80;99.90;;;;;;4971336;28;20034;-55
2022/03/31 09:19:20;;;;;;;7.10;3.17;;;1.90;99.90;;;;;;4971266;28;20027;-51
2022/03/31 09:21:54;;;;;;;3.53;2.95;;;1.80;99.90;;;;;;4970650;28;20031;-52
2022/03/31 09:24:23;;;;;;;5.97;3.03;;;1.80;99.90;;;;;;4970625;28;20105;-52
2022/03/31 09:26:50;;;;;;;3.50;2.55;;;1.80;99.90;;;;;;4970592;28;20429;-53
2022/03/31 09:29:19;;;;;;;3.30;2.85;;;1.90;99.90;;;;;;4971080;28;20065;-52
2022/03/31 09:31:46;;;;;;;7.13;3.25;;;1.90;99.90;;;;;;4970639;28;20370;-52
2022/03/31 09:34:13;;;;;;;5.50;2.80;;;1.90;99.90;;;;;;4971070;28;20042;-54
2022/03/31 09:36:43;;;;;;;4.53;2.67;;;1.90;99.90;;;;;;4970638;28;20029;-54
2022/03/31 09:39:13;;;;;;;3.17;2.88;;;1.80;99.90;;;;;;4969951;28;20490;-55
2022/03/31 09:41:42;;;;;;;4.68;2.90;;;1.80;99.90;;;;;;4970605;28;20106;-55
2022/03/31 09:44:27;;;;;;;5.53;2.72;;;1.80;99.90;;;;;;4970369;28;20050;-51
2022/03/31 09:46:53;;;;;;;5.18;3.35;;;1.80;99.90;;;;;;4970337;28;20027;-54
2022/03/31 09:49:24;;;;;;;3.17;2.78;;;1.90;99.90;;;;;;4970424;28;20034;-56
2022/03/31 09:51:57;;;;;;;3.50;3.08;;;1.80;99.90;;;;;;4970799;28;20023;-50
2022/03/31 09:54:26;;;;;;;6.28;3.05;;;2.00;99.90;;;;;;4970473;28;20027;-56
2022/03/31 09:56:53;;;;;;;3.85;2.88;;;2.00;99.90;;;;;;4971064;28;20042;-53
2022/03/31 09:59:18;;;;;;;3.20;2.90;;;2.10;99.90;;;;;;4970404;28;20117;-55
2022/03/31 10:01:44;;;;;;;5.22;2.75;;;2.20;99.90;;;;;;4979031;28;20461;-54
2022/03/31 10:04:12;;;;;;;4.28;3.03;;;2.30;99.90;;;;;;4990145;28;20027;-53
2022/03/31 10:06:42;;;;;;;4.10;3.03;;;2.40;99.90;;;;;;4990221;28;20026;-52
2022/03/31 10:09:10;;;;;;;3.97;2.92;;;2.60;99.90;;;;;;4977939;28;20031;-50
2022/03/31 10:11:42;;;;;;;4.97;2.95;;;2.60;99.90;;;;;;4971518;28;20025;-52
2022/03/31 10:14:27;;;;;;;3.75;2.90;;;2.80;99.90;;;;;;4971491;28;20023;-53
2022/03/31 10:17:06;;;;;;;3.55;2.78;;;2.90;99.90;;;;;;4970629;28;20023;-51
2022/03/31 10:19:37;;;;;;;3.88;2.63;;;3.10;99.90;;;;;;4970435;28;20034;-55
2022/03/31 10:25:03;;;;;;;3.95;2.60;;;3.40;99.90;;;;;;4970700;28;20041;-50
2022/03/31 10:27:37;;;;;;;3.13;2.33;;;3.40;99.90;;;;;;4969240;28;20035;-51
2022/03/31 10:30:16;;;;;;;2.17;1.90;;;3.50;99.90;;;;;;4970975;28;20023;-53
2022/03/31 10:32:59;;;;;;;3.08;1.92;;;3.40;99.90;;;;;;4970243;28;20030;-53
2022/03/31 10:35:59;;;;;;;4.50;2.75;;;3.50;99.90;;;;;;4970430;28;20072;-56
2022/03/31 10:38:25;;;;;;;5.20;2.90;;;3.50;99.90;;;;;;4970602;28;20109;-52
2022/03/31 10:40:59;;;;;;;2.75;2.50;;;3.50;99.90;;;;;;4970478;28;20113;-54
2022/03/31 10:43:27;;;;;;;6.13;2.63;;;3.50;99.90;;;;;;4970364;28;20366;-53
2022/03/31 10:45:58;;;;;;;3.42;2.08;;;3.60;99.90;;;;;;4969268;28;20054;-55
2022/03/31 10:48:29;;;;;;;3.08;2.28;;;3.60;99.90;;;;;;4970341;28;20023;-54
2022/03/31 10:51:02;;;;;;;2.60;2.38;;;3.60;99.90;;;;;;4970660;28;20026;-54
2022/03/31 10:53:29;;;;;;;3.42;2.03;;;3.70;99.90;;;;;;4969782;28;20029;-54
2022/03/31 10:55:55;;;;;;;2.85;2.17;;;3.90;99.90;;;;;;4970497;28;20069;-53
2022/03/31 10:58:27;;;;;;;5.90;2.40;;;3.90;99.90;;;;;;4969990;28;20071;-55
2022/03/31 11:00:54;;;;;;;3.05;2.15;;;4.10;99.90;;;;;;4970510;28;20031;-55
2022/03/31 11:03:20;;;;;;;5.20;2.15;;;4.10;99.90;;;;;;4971314;28;20035;-55
2022/03/31 11:05:47;;;;;;;2.17;1.98;;;4.10;99.90;;;;;;4974191;28;20031;-53
2022/03/31 11:08:17;;;;;;;4.38;2.10;;;4.20;99.90;;;;;;4973894;28;20023;-53
2022/03/31 11:10:44;;;;;;;2.13;1.92;;;4.30;99.90;;;;;;4973902;28;20037;-52
2022/03/31 11:13:11;;;;;;;2.83;2.28;;;4.40;99.90;;;;;;4973368;28;20102;-54
2022/03/31 11:15:37;;;;;;;2.85;2.10;;;4.50;99.90;;;;;;4972468;28;20118;-52
2022/03/31 11:18:03;;;;;;;2.53;2.30;;;4.60;99.90;;;;;;4973293;28;20462;-56
2022/03/31 11:20:29;;;;;;;3.22;2.30;;;4.70;99.90;;;;;;4988232;28;20540;-57
2022/03/31 11:22:55;;;;;;;3.65;2.22;;;4.70;99.90;;;;;;4971438;28;20674;-54
2022/03/31 11:25:23;;;;;;;2.83;2.33;;;4.70;99.90;;;;;;4972727;28;20063;-55
2022/03/31 11:27:50;;;;;;;2.90;2.25;;;4.80;99.90;;;;;;4972547;28;20445;-56
2022/03/31 11:30:18;;;;;;;4.00;2.20;;;4.80;99.90;;;;;;4985507;28;20033;-55
2022/03/31 11:32:44;;;;;;;3.20;2.40;;;4.70;99.90;;;;;;4992864;28;20023;-55
2022/03/31 11:35:13;;;;;;;2.53;2.33;;;4.80;99.90;;;;;;4973726;28;20034;-53
2022/03/31 11:37:49;;;;;;;2.28;1.83;;;4.80;99.90;;;;;;4973320;28;20050;-58
2022/03/31 11:40:19;;;;;;;3.83;2.47;;;4.80;99.90;;;;;;4973435;28;20066;-56
2022/03/31 11:42:50;;;;;;;3.08;2.75;;;4.80;99.90;;;;;;4971944;28;20129;-58
2022/03/31 11:45:22;;;;;;;6.35;2.67;;;4.80;99.90;;;;;;4973529;28;20114;-57
2022/03/31 11:48:12;;;;;;;2.40;2.08;;;4.90;99.90;;;;;;4973019;28;20059;-58
2022/03/31 11:50:59;;;;;;;3.25;2.08;;;4.90;99.90;;;;;;4973258;28;20676;-55
2022/03/31 11:53:27;;;;;;;2.45;1.73;;;4.80;99.90;;;;;;4972319;28;20448;-59
2022/03/31 11:56:00;;;;;;;3.47;1.50;;;4.80;99.90;;;;;;4973098;28;20022;-56
2022/03/31 11:58:33;;;;;;;2.00;1.80;;;4.80;99.90;;;;;;4972348;28;20047;-56
2022/03/31 12:00:58;;;;;;;1.98;1.80;;;4.80;99.90;;;;;;4971624;28;20327;-58
2022/03/31 12:03:33;;;;;;;3.08;1.77;;;4.80;99.90;;;;;;4971929;28;20038;-56
2022/03/31 12:06:00;;;;;;;2.83;1.73;;;4.80;99.90;;;;;;4960921;28;20512;-54
2022/03/31 12:08:27;;;;;;;2.42;1.70;;;4.80;98.50;;;;;;4972059;28;20133;-55
2022/03/31 12:10:54;;;;;;;4.10;2.30;;;4.70;99.90;;;;;;4972899;28;20113;-58
2022/03/31 12:13:22;;;;;;;2.53;1.80;;;4.80;99.90;;;;;;4971772;28;20035;-55
2022/03/31 12:15:47;;;;;;;1.35;1.10;;;4.80;97.90;;;;;;4972579;28;20114;-54
2022/03/31 12:18:17;;;;;;;3.35;1.92;;;4.80;97.40;;;;;;4972047;28;20106;-55
2022/03/31 12:20:46;;;;;;;1.95;1.55;;;4.90;97.20;;;;;;4972687;28;20031;-55
2022/03/31 12:23:24;;;;;;;3.90;1.45;;;5.00;95.60;;;;;;4972395;28;20110;-56
2022/03/31 12:25:50;;;;;;;3.05;1.48;;;4.90;92.10;;;;;;4972349;28;20041;-56
2022/03/31 12:28:20;;;;;;;1.77;1.50;;;5.00;90.70;;;;;;4971989;28;20114;-58
2022/03/31 12:30:47;;;;;;;1.27;1.08;;;5.00;96.70;;;;;;4972027;28;20165;-57
2022/03/31 12:33:19;;;;;;;3.30;1.23;;;5.00;91.60;;;;;;4972143;28;20031;-53
2022/03/31 12:36:06;;;;;;;4.45;1.50;;;5.10;93.20;;;;;;4971573;28;20093;-56
2022/03/31 12:38:38;;;;;;;2.72;1.80;;;5.10;94.30;;;;;;4971892;28;20161;-58
2022/03/31 12:41:14;;;;;;;1.42;1.33;;;5.10;92.70;;;;;;4972179;28;20402;-57
2022/03/31 12:43:40;;;;;;;1.10;1.00;;;5.10;86.80;;;;;;4971935;28;20030;-54
2022/03/31 12:46:14;;;;;;;1.80;1.27;;;5.10;88.60;;;;;;4971862;28;20097;-53
2022/03/31 12:48:51;;;;;;;1.88;1.25;;;5.10;89.90;;;;;;4972017;28;20023;-56
2022/03/31 12:51:16;;;;;;;2.70;1.48;;;5.10;83.50;;;;;;4971840;28;20031;-58
2022/03/31 12:53:42;;;;;;;1.50;1.23;;;5.20;89.80;;;;;;4971601;28;20018;-57
2022/03/31 12:56:09;;;;;;;2.08;1.55;;;5.10;84.00;;;;;;4971741;28;20397;-56
2022/03/31 12:58:36;;;;;;;1.88;1.30;;;5.20;91.60;;;;;;4971943;28;20444;-57
2022/03/31 13:01:02;;;;;;;1.17;0.75;;;5.20;85.40;;;;;;4971603;28;20031;-56
2022/03/31 13:03:28;;;;;;;1.10;1.00;;;5.30;78.70;;;;;;4971202;28;20509;-55